Time;durP1;ratioP1;P1;durP2;ratioP2;P2;SDS_P1;SDS_P2;PMS_P1;PMS_P2;Temp;Humidity;BMP_temperature;BMP_pressure;BME280_temperature;BME280_humidity;BME280_pressure;Samples;Min_cycle;Max_cycle;Signal;HPM_P1;HPM_P2
2023/09/29 00:00:55;;;;;;;18.90;10.20;;;;;;;15.75;100.00;101122.02;105189;1259;59814;-63
2023/09/29 00:03:23;;;;;;;13.40;9.70;;;;;;;15.73;100.00;101118.46;105480;1259;59508;-63
2023/09/29 00:05:51;;;;;;;13.60;9.20;;;;;;;15.73;100.00;101117.58;105092;1256;71831;-65
2023/09/29 00:08:22;;;;;;;13.80;9.40;;;;;;;15.72;100.00;101119.83;105075;1259;67365;-64
2023/09/29 00:10:50;;;;;;;15.30;9.10;;;;;;;15.70;100.00;101118.61;105140;1257;72688;-63
2023/09/29 00:13:18;;;;;;;12.50;9.90;;;;;;;15.68;100.00;101118.17;105125;1257;61150;-68
2023/09/29 00:15:48;;;;;;;12.50;8.60;;;;;;;15.68;100.00;101116.95;105005;1259;60569;-66
2023/09/29 00:18:16;;;;;;;19.10;8.80;;;;;;;15.67;100.00;101116.60;105117;1259;73870;-63
2023/09/29 00:20:44;;;;;;;11.90;8.80;;;;;;;15.65;100.00;101123.86;105121;1256;66082;-63
2023/09/29 00:23:12;;;;;;;14.90;9.90;;;;;;;15.63;100.00;101128.04;105248;1259;72707;-64
2023/09/29 00:25:40;;;;;;;13.20;9.00;;;;;;;15.63;100.00;101120.73;105356;1259;60558;-65
2023/09/29 00:28:08;;;;;;;17.70;9.30;;;;;;;15.63;100.00;101123.96;104887;1257;60591;-63
2023/09/29 00:30:36;;;;;;;13.90;9.40;;;;;;;15.62;100.00;101122.30;105279;1257;73595;-63
2023/09/29 00:33:04;;;;;;;13.30;9.00;;;;;;;15.62;100.00;101121.81;105288;1259;66679;-64
2023/09/29 00:35:33;;;;;;;13.90;9.60;;;;;;;15.61;100.00;101123.13;105734;1259;71440;-64
2023/09/29 00:38:01;;;;;;;14.60;9.40;;;;;;;15.60;100.00;101121.08;105504;1257;60384;-63
2023/09/29 00:40:29;;;;;;;12.40;9.10;;;;;;;15.58;100.00;101125.20;105276;1257;60572;-63
2023/09/29 00:42:59;;;;;;;17.60;9.30;;;;;;;15.56;100.00;101126.91;105203;1259;72627;-63
2023/09/29 00:45:28;;;;;;;13.80;9.80;;;;;;;15.54;100.00;101126.64;105288;1257;67140;-65
2023/09/29 00:47:59;;;;;;;11.40;8.10;;;;;;;15.52;100.00;101130.36;105175;1257;72636;-64
2023/09/29 00:50:28;;;;;;;12.50;9.50;;;;;;;15.50;100.00;101128.31;105031;1258;60389;-65
2023/09/29 00:53:04;;;;;;;13.80;9.60;;;;;;;15.50;100.00;101125.77;105121;1257;60578;-63
2023/09/29 00:55:32;;;;;;;14.00;8.80;;;;;;;15.49;100.00;101127.27;104987;1260;74423;-63
2023/09/29 00:58:00;;;;;;;13.60;9.00;;;;;;;15.47;100.00;101126.99;105053;1260;66913;-63
2023/09/29 01:00:32;;;;;;;15.60;9.70;;;;;;;15.46;100.00;101129.41;105202;1257;71443;-63
2023/09/29 01:03:13;;;;;;;11.60;8.90;;;;;;;15.44;100.00;101133.08;105220;1260;60507;-63
2023/09/29 01:05:44;;;;;;;13.90;9.70;;;;;;;15.42;100.00;101132.34;104888;1257;60600;-63
2023/09/29 01:08:14;;;;;;;13.70;9.40;;;;;;;15.41;100.00;101134.15;105166;1259;73909;-65
2023/09/29 01:10:42;;;;;;;14.80;9.40;;;;;;;15.42;100.00;101134.64;105121;1260;66962;-63
2023/09/29 01:13:10;;;;;;;12.50;9.60;;;;;;;15.40;100.00;101135.52;105181;1259;71507;-63
2023/09/29 01:15:39;;;;;;;14.50;10.30;;;;;;;15.39;100.00;101137.37;105102;1256;61366;-63
2023/09/29 01:18:09;;;;;;;13.30;9.40;;;;;;;15.38;100.00;101133.57;105109;1259;60520;-63
2023/09/29 01:20:40;;;;;;;14.50;10.10;;;;;;;15.38;100.00;101133.36;105004;1261;73041;-63
2023/09/29 01:23:09;;;;;;;12.30;9.90;;;;;;;15.36;100.00;101133.52;104999;1261;65712;-65
2023/09/29 01:25:37;;;;;;;15.10;10.00;;;;;;;15.33;100.00;101133.05;104997;1255;72629;-64
2023/09/29 01:28:06;;;;;;;18.00;10.10;;;;;;;15.32;100.00;101131.95;105170;1269;60484;-64
2023/09/29 01:30:34;;;;;;;14.90;10.20;;;;;;;15.31;100.00;101133.70;105151;1255;60473;-63
2023/09/29 01:33:02;;;;;;;18.70;10.80;;;;;;;15.29;100.00;101131.26;105117;1259;73864;-63
2023/09/29 01:35:30;;;;;;;15.10;9.90;;;;;;;15.28;100.00;101132.45;105120;1259;66952;-66
2023/09/29 01:37:59;;;;;;;13.20;9.70;;;;;;;15.28;100.00;101133.43;105191;1261;72792;-68
2023/09/29 01:40:28;;;;;;;14.10;10.00;;;;;;;15.26;100.00;101132.03;104995;1260;60518;-63
2023/09/29 01:42:56;;;;;;;10.50;8.90;;;;;;;15.24;100.00;101136.48;105120;1255;60447;-63
2023/09/29 01:45:25;;;;;;;15.70;9.90;;;;;;;15.22;100.00;101136.61;105391;1257;73913;-66
2023/09/29 01:47:54;;;;;;;18.70;9.50;;;;;;;15.19;100.00;101136.31;105157;1259;66043;-63
2023/09/29 01:50:22;;;;;;;14.50;9.70;;;;;;;15.16;100.00;101138.96;105087;1260;74006;-63
2023/09/29 01:52:52;;;;;;;14.10;9.90;;;;;;;15.13;100.00;101137.85;105105;1259;60453;-63
2023/09/29 01:55:20;;;;;;;14.70;8.70;;;;;;;15.15;100.00;101139.23;105599;1254;60776;-65
2023/09/29 01:57:50;;;;;;;15.20;9.30;;;;;;;15.15;100.00;101141.30;105477;1257;73863;-64
2023/09/29 02:00:24;;;;;;;12.40;8.20;;;;;;;15.16;100.00;101140.58;105427;1260;66893;-63
2023/09/29 02:02:53;;;;;;;19.60;9.60;;;;;;;15.14;100.00;101144.08;105875;1254;72801;-66
2023/09/29 02:05:23;;;;;;;13.50;8.40;;;;;;;15.14;100.00;101140.44;105217;1257;60510;-64
2023/09/29 02:07:52;;;;;;;12.90;8.80;;;;;;;15.13;100.00;101137.08;109011;1254;59267;-64
2023/09/29 02:10:20;;;;;;;15.10;8.70;;;;;;;15.09;100.00;101139.48;108977;1254;73850;-64
2023/09/29 02:12:58;;;;;;;13.20;8.00;;;;;;;15.03;100.00;101138.17;109008;1259;65668;-66
2023/09/29 02:15:26;;;;;;;13.90;8.70;;;;;;;14.99;100.00;101140.29;108974;1255;71172;-65
2023/09/29 02:17:54;;;;;;;13.50;8.00;;;;;;;14.97;100.00;101135.20;108907;1257;61729;-65
2023/09/29 02:20:31;;;;;;;10.20;7.50;;;;;;;14.95;100.00;101137.66;108920;1257;58242;-64
2023/09/29 02:23:00;;;;;;;11.50;7.60;;;;;;;14.92;100.00;101134.02;108864;1257;72556;-66
2023/09/29 02:25:28;;;;;;;11.10;7.60;;;;;;;14.91;100.00;101136.88;108949;1257;67083;-64
2023/09/29 02:27:58;;;;;;;10.90;7.70;;;;;;;14.92;100.00;101133.89;108825;1257;72744;-64
2023/09/29 02:30:26;;;;;;;11.50;7.50;;;;;;;14.94;100.00;101138.35;108986;1254;60354;-65
2023/09/29 02:32:54;;;;;;;14.60;8.40;;;;;;;14.94;100.00;101131.73;108853;1254;60054;-66
2023/09/29 02:35:22;;;;;;;12.10;7.80;;;;;;;14.94;100.00;101130.15;109017;1254;73966;-64
2023/09/29 02:37:52;;;;;;;11.80;7.90;;;;;;;14.95;100.00;101133.52;109019;1254;65691;-64
2023/09/29 02:40:22;;;;;;;9.80;7.10;;;;;;;14.94;100.00;101138.67;108965;1254;71817;-67
2023/09/29 02:42:50;;;;;;;13.40;7.70;;;;;;;14.92;100.00;101137.29;108951;1254;60150;-65
2023/09/29 02:45:18;;;;;;;11.90;8.10;;;;;;;14.89;100.00;101140.09;109023;1254;60075;-64
2023/09/29 02:47:47;;;;;;;11.90;8.00;;;;;;;14.87;100.00;101139.39;109057;1254;72628;-64
2023/09/29 02:50:16;;;;;;;11.20;8.20;;;;;;;14.85;100.00;101141.00;109029;1254;66309;-65
2023/09/29 02:52:44;;;;;;;11.40;7.40;;;;;;;14.81;100.00;101144.15;108967;1254;71428;-66
2023/09/29 02:55:15;;;;;;;13.60;9.10;;;;;;;14.75;100.00;101140.52;108891;1254;59283;-64
2023/09/29 02:57:44;;;;;;;15.30;8.50;;;;;;;14.68;100.00;101139.42;109003;1254;58823;-64
2023/09/29 03:00:15;;;;;;;13.20;8.60;;;;;;;14.66;100.00;101138.16;109014;1254;73816;-66
2023/09/29 03:02:43;;;;;;;12.30;7.90;;;;;;;14.65;100.00;101133.90;108974;1254;65704;-66
2023/09/29 03:05:14;;;;;;;14.20;8.50;;;;;;;14.63;100.00;101135.21;108992;1254;72768;-65
2023/09/29 03:07:42;;;;;;;12.10;7.80;;;;;;;14.59;100.00;101130.50;108955;1257;60183;-64
2023/09/29 03:10:14;;;;;;;12.40;8.40;;;;;;;14.57;100.00;101131.45;108897;1256;58828;-66
2023/09/29 03:12:43;;;;;;;9.50;7.90;;;;;;;14.54;100.00;101129.80;108846;1258;73807;-66
2023/09/29 03:15:13;;;;;;;11.80;8.20;;;;;;;14.51;100.00;101131.04;108941;1257;66199;-64
2023/09/29 03:17:42;;;;;;;13.20;9.10;;;;;;;14.48;100.00;101131.71;108932;1255;72760;-65
2023/09/29 03:20:12;;;;;;;13.60;9.00;;;;;;;14.45;100.00;101136.59;108902;1256;61704;-67
2023/09/29 03:22:44;;;;;;;21.30;11.00;;;;;;;14.43;100.00;101136.17;108899;1257;58916;-70
2023/09/29 03:25:19;;;;;;;17.70;10.70;;;;;;;14.44;100.00;101140.14;108965;1254;74360;-64
2023/09/29 03:27:48;;;;;;;17.70;10.30;;;;;;;14.42;100.00;101139.95;109029;1254;67055;-65
2023/09/29 03:30:16;;;;;;;12.40;9.80;;;;;;;14.40;100.00;101143.77;108954;1254;72414;-64
2023/09/29 03:32:44;;;;;;;16.90;10.00;;;;;;;14.37;100.00;101146.88;108966;1259;59194;-65
2023/09/29 03:35:13;;;;;;;16.50;10.00;;;;;;;14.37;100.00;101146.73;108977;1254;60088;-65
2023/09/29 03:37:43;;;;;;;14.80;9.40;;;;;;;14.39;100.00;101147.14;109004;1254;73879;-64
2023/09/29 03:40:16;;;;;;;15.50;9.20;;;;;;;14.44;100.00;101149.94;108919;1259;67880;-65
2023/09/29 03:42:44;;;;;;;13.10;9.30;;;;;;;14.52;100.00;101150.61;108920;1254;72784;-65
2023/09/29 03:45:12;;;;;;;14.00;9.70;;;;;;;14.67;100.00;101150.31;108937;1256;58879;-64
2023/09/29 03:47:41;;;;;;;13.90;9.70;;;;;;;14.86;100.00;101149.20;109003;1256;60121;-65
2023/09/29 03:50:12;;;;;;;17.40;10.60;;;;;;;15.07;100.00;101149.11;109032;1254;73870;-72
2023/09/29 03:52:42;;;;;;;14.90;10.50;;;;;;;15.36;100.00;101145.68;109004;1254;66355;-64
2023/09/29 03:55:12;;;;;;;15.80;11.80;;;;;;;15.69;100.00;101140.79;109035;1254;71068;-64
2023/09/29 03:57:41;;;;;;;15.20;10.50;;;;;;;16.06;100.00;101137.31;108900;1257;58897;-66
2023/09/29 04:00:13;;;;;;;15.10;10.10;;;;;;;16.45;100.00;101138.25;109007;1254;60763;-66
2023/09/29 04:02:41;;;;;;;11.30;8.60;;;;;;;16.84;100.00;101137.96;108999;1254;73940;-62
2023/09/29 04:05:09;;;;;;;13.00;9.00;;;;;;;17.22;100.00;101129.54;109048;1254;65647;-63
2023/09/29 04:07:40;;;;;;;11.80;8.30;;;;;;;17.58;100.00;101133.15;109029;1254;71458;-68
2023/09/29 04:10:09;;;;;;;12.00;7.90;;;;;;;17.93;100.00;101135.03;108954;1256;59663;-69
2023/09/29 04:12:37;;;;;;;11.60;7.10;;;;;;;18.30;100.00;101132.93;109011;1254;60110;-62
2023/09/29 04:15:06;;;;;;;11.60;6.80;;;;;;;18.66;100.00;101134.98;109053;1254;73868;-64
2023/09/29 04:17:35;;;;;;;12.30;7.90;;;;;;;19.05;100.00;101130.36;108866;1254;65455;-69
2023/09/29 04:20:04;;;;;;;11.70;7.20;;;;;;;19.38;100.00;101129.91;108968;1254;73161;-63
2023/09/29 04:22:32;;;;;;;8.30;6.20;;;;;;;19.68;100.00;101131.06;108998;1254;58828;-63
2023/09/29 04:25:00;;;;;;;11.20;7.00;;;;;;;20.01;100.00;101122.88;109029;1254;60095;-63
2023/09/29 04:27:27;;;;;;;10.00;6.40;;;;;;;20.30;100.00;101124.83;109033;1254;74267;-64
2023/09/29 04:29:55;;;;;;;9.80;6.90;;;;;;;20.56;100.00;101124.35;109017;1254;66949;-67
2023/09/29 04:32:23;;;;;;;10.90;7.40;;;;;;;20.82;100.00;101123.69;109121;1254;73059;-72
2023/09/29 04:34:50;;;;;;;10.50;6.80;;;;;;;21.09;100.00;101123.98;109040;1254;60192;-65
2023/09/29 04:37:18;;;;;;;10.70;6.40;;;;;;;21.38;98.44;101121.56;109062;1254;60096;-64
2023/09/29 04:39:46;;;;;;;8.30;6.60;;;;;;;21.62;93.15;101119.77;108905;1254;73941;-68
2023/09/29 04:42:14;;;;;;;10.40;7.50;;;;;;;21.75;87.42;101119.01;108999;1254;65622;-65
2023/09/29 04:44:42;;;;;;;8.10;7.00;;;;;;;21.78;85.59;101123.27;108979;1257;72799;-71
2023/09/29 04:47:09;;;;;;;10.60;7.50;;;;;;;21.70;85.27;101122.91;109000;1256;60104;-65
2023/09/29 04:49:37;;;;;;;11.40;6.60;;;;;;;21.41;87.06;101125.02;109180;1254;58817;-65
2023/09/29 04:52:05;;;;;;;9.80;6.70;;;;;;;21.06;93.52;101129.23;109034;1254;74419;-70
2023/09/29 04:54:32;;;;;;;10.40;6.70;;;;;;;20.85;99.58;101130.17;109041;1254;65902;-65
2023/09/29 04:57:00;;;;;;;10.70;7.70;;;;;;;20.75;100.00;101134.56;109023;1254;72044;-66
2023/09/29 04:59:28;;;;;;;10.40;7.40;;;;;;;20.53;100.00;101136.87;108910;1254;60177;-64
2023/09/29 05:01:56;;;;;;;11.70;7.60;;;;;;;20.28;100.00;101137.83;109036;1254;58801;-67
2023/09/29 05:04:24;;;;;;;9.90;7.90;;;;;;;20.07;100.00;101143.08;109083;1254;72862;-64
2023/09/29 05:06:52;;;;;;;11.40;8.30;;;;;;;19.88;100.00;101152.15;108971;1254;67008;-67
2023/09/29 05:09:20;;;;;;;13.60;7.40;;;;;;;19.73;100.00;101153.60;109077;1254;72759;-65
2023/09/29 05:11:48;;;;;;;11.00;7.60;;;;;;;19.63;100.00;101155.45;109043;1254;60111;-70
2023/09/29 05:14:16;;;;;;;11.70;7.50;;;;;;;19.41;100.00;101154.45;108999;1254;59665;-65
2023/09/29 05:16:44;;;;;;;12.60;8.00;;;;;;;19.26;100.00;101157.20;109044;1254;73086;-71
2023/09/29 05:19:11;;;;;;;13.00;7.00;;;;;;;19.19;100.00;101164.09;109058;1254;67831;-66
2023/09/29 05:21:39;;;;;;;10.10;7.10;;;;;;;19.14;100.00;101161.98;109046;1254;72474;-66
2023/09/29 05:24:08;;;;;;;11.20;8.20;;;;;;;19.10;100.00;101162.19;109041;1254;60702;-66
2023/09/29 05:26:36;;;;;;;11.90;8.10;;;;;;;19.09;100.00;101166.92;109069;1254;60742;-66
2023/09/29 05:29:04;;;;;;;15.00;8.40;;;;;;;19.11;100.00;101171.83;109022;1254;74440;-67
2023/09/29 05:31:32;;;;;;;14.90;9.40;;;;;;;19.25;100.00;101171.98;109028;1255;67090;-66
2023/09/29 05:33:59;;;;;;;14.90;10.70;;;;;;;19.44;100.00;101166.91;109009;1254;71512;-66
2023/09/29 05:36:29;;;;;;;13.20;9.60;;;;;;;19.64;100.00;101170.00;108947;1260;60097;-66
2023/09/29 05:38:57;;;;;;;16.50;8.90;;;;;;;19.81;100.00;101167.11;108935;1256;58738;-65
2023/09/29 05:41:25;;;;;;;12.30;9.30;;;;;;;19.98;100.00;101165.92;108984;1257;74429;-65
2023/09/29 05:43:53;;;;;;;17.10;9.20;;;;;;;20.17;100.00;101160.78;108933;1256;66939;-65
2023/09/29 05:46:21;;;;;;;13.00;8.70;;;;;;;20.35;100.00;101162.29;108954;1256;72805;-63
2023/09/29 05:48:48;;;;;;;12.50;7.90;;;;;;;20.46;100.00;101162.41;108940;1254;60065;-65
2023/09/29 05:51:16;;;;;;;13.40;7.90;;;;;;;20.57;100.00;101163.16;109036;1254;59249;-64
2023/09/29 05:53:44;;;;;;;12.60;8.60;;;;;;;20.76;100.00;101160.11;109071;1254;72589;-64
2023/09/29 05:56:13;;;;;;;13.10;9.10;;;;;;;20.99;100.00;101159.44;109015;1254;66956;-65
2023/09/29 05:58:40;;;;;;;12.50;8.80;;;;;;;21.29;100.00;101162.89;109051;1254;72761;-64
2023/09/29 06:01:12;;;;;;;12.60;8.60;;;;;;;21.82;100.00;101156.86;109011;1254;59262;-68
2023/09/29 06:03:43;;;;;;;11.30;7.90;;;;;;;22.57;96.02;101153.76;108888;1254;58283;-67
2023/09/29 06:06:11;;;;;;;16.50;9.20;;;;;;;23.31;82.62;101153.83;109007;1254;73870;-63
2023/09/29 06:08:40;;;;;;;13.80;9.90;;;;;;;23.95;71.35;101154.36;109054;1254;65715;-63
2023/09/29 06:11:11;;;;;;;13.40;9.70;;;;;;;24.45;64.66;101145.17;109037;1254;71106;-63
2023/09/29 06:13:39;;;;;;;12.80;9.40;;;;;;;24.87;61.08;101141.55;109000;1254;58856;-64
2023/09/29 06:16:07;;;;;;;16.20;9.50;;;;;;;25.26;57.53;101143.46;109020;1254;58837;-63
2023/09/29 06:18:35;;;;;;;15.50;10.00;;;;;;;25.56;52.78;101144.13;109021;1254;73936;-67
2023/09/29 06:21:03;;;;;;;12.50;8.80;;;;;;;25.74;52.77;101143.78;109126;1254;66971;-64
2023/09/29 06:23:31;;;;;;;14.60;9.50;;;;;;;26.17;51.32;101143.20;109124;1254;71386;-63
2023/09/29 06:25:59;;;;;;;12.30;9.10;;;;;;;26.58;48.35;101141.57;109007;1254;58385;-63
2023/09/29 06:28:27;;;;;;;11.70;8.40;;;;;;;26.91;45.73;101141.43;108946;1254;60094;-64
2023/09/29 06:30:55;;;;;;;13.30;8.70;;;;;;;27.13;44.85;101147.55;109018;1254;74869;-63
2023/09/29 06:33:24;;;;;;;12.70;8.60;;;;;;;27.34;43.63;101148.78;109074;1254;66026;-63
2023/09/29 06:35:52;;;;;;;19.60;9.20;;;;;;;27.49;42.16;101142.41;108970;1256;71361;-63
2023/09/29 06:38:20;;;;;;;12.50;9.10;;;;;;;27.51;41.62;101147.59;109027;1254;62252;-63
2023/09/29 06:40:48;;;;;;;12.90;8.40;;;;;;;27.55;41.21;101149.29;108986;1254;60048;-64
2023/09/29 06:43:17;;;;;;;9.80;8.10;;;;;;;27.58;41.38;101148.04;109056;1254;73975;-63
2023/09/29 06:45:45;;;;;;;10.00;8.40;;;;;;;27.67;41.40;101141.57;108999;1254;65515;-65
2023/09/29 06:48:28;;;;;;;11.20;8.50;;;;;;;27.80;40.93;101142.02;109001;1255;73267;-62
2023/09/29 06:50:59;;;;;;;14.10;8.20;;;;;;;27.91;40.47;101144.26;109020;1254;58776;-63
2023/09/29 06:53:29;;;;;;;11.80;7.80;;;;;;;28.08;40.24;101145.37;109056;1254;60226;-63
2023/09/29 06:56:00;;;;;;;11.50;8.20;;;;;;;28.20;39.92;101140.46;108879;1254;74244;-64
2023/09/29 06:58:28;;;;;;;15.10;8.70;;;;;;;28.33;39.84;101142.42;109070;1254;67447;-63
2023/09/29 07:00:56;;;;;;;11.40;8.00;;;;;;;28.44;39.07;101142.66;109078;1254;72492;-66
2023/09/29 07:03:30;;;;;;;11.10;7.90;;;;;;;28.51;38.71;101140.36;109057;1256;60631;-63
2023/09/29 07:05:59;;;;;;;8.90;8.00;;;;;;;28.60;38.47;101138.30;109012;1254;60059;-63
2023/09/29 07:08:28;;;;;;;10.30;7.70;;;;;;;28.74;38.40;101133.39;109059;1254;72620;-64
2023/09/29 07:10:55;;;;;;;13.60;7.90;;;;;;;28.84;37.82;101132.97;109023;1254;66954;-64
2023/09/29 07:13:23;;;;;;;10.20;7.50;;;;;;;28.83;38.01;101130.98;109030;1256;72757;-64
2023/09/29 07:15:51;;;;;;;11.50;8.40;;;;;;;28.91;37.76;101131.02;109050;1254;60752;-63
2023/09/29 07:18:21;;;;;;;13.90;8.40;;;;;;;28.97;37.68;101133.86;109055;1254;60071;-64
2023/09/29 07:20:53;;;;;;;11.40;8.30;;;;;;;29.03;37.52;101130.54;109012;1254;73891;-64
2023/09/29 07:23:22;;;;;;;10.40;8.00;;;;;;;29.16;37.15;101131.20;109051;1254;65829;-65
2023/09/29 07:25:53;;;;;;;13.00;8.70;;;;;;;29.25;37.13;101128.58;109046;1254;72710;-64
2023/09/29 07:28:23;;;;;;;10.90;8.30;;;;;;;29.41;37.00;101131.42;109006;1254;59288;-65
2023/09/29 07:30:51;;;;;;;14.30;7.90;;;;;;;29.50;36.44;101125.57;109026;1254;59161;-64
2023/09/29 07:33:19;;;;;;;14.90;8.20;;;;;;;29.50;36.53;101125.04;109130;1254;73705;-64
2023/09/29 07:35:47;;;;;;;12.60;8.60;;;;;;;29.47;36.56;101121.31;109058;1254;66956;-66
2023/09/29 07:38:17;;;;;;;11.00;8.40;;;;;;;29.48;36.76;101118.72;109025;1254;71175;-66
2023/09/29 07:40:46;;;;;;;;;;;;;;;29.59;36.14;101115.52;109039;1254;60515;-65
2023/09/29 07:43:14;;;;;;;10.90;7.80;;;;;;;29.68;36.17;101112.23;109085;1254;58624;-67
2023/09/29 07:45:42;;;;;;;14.00;8.40;;;;;;;29.74;35.42;101111.89;109059;1254;73908;-64
2023/09/29 07:48:11;;;;;;;15.50;8.60;;;;;;;29.76;35.55;101112.28;109042;1254;67536;-67
2023/09/29 07:50:39;;;;;;;11.70;7.70;;;;;;;29.79;35.63;101111.10;109075;1254;73213;-66
2023/09/29 07:53:08;;;;;;;10.90;7.70;;;;;;;29.89;35.78;101110.92;109057;1254;60146;-64
2023/09/29 07:55:36;;;;;;;16.40;9.20;;;;;;;29.97;34.94;101103.75;109055;1254;58829;-66
2023/09/29 07:58:04;;;;;;;11.50;7.60;;;;;;;30.06;35.53;101103.33;109046;1254;73889;-66
2023/09/29 08:00:31;;;;;;;10.80;7.80;;;;;;;30.16;34.97;101104.86;109110;1254;67033;-64
2023/09/29 08:03:00;;;;;;;13.40;8.20;;;;;;;30.25;35.14;101102.63;109096;1254;72362;-64
2023/09/29 08:05:28;;;;;;;13.40;8.50;;;;;;;30.35;34.54;101101.24;109112;1254;60173;-67
2023/09/29 08:07:55;;;;;;;11.10;8.10;;;;;;;30.42;34.90;101099.45;109072;1254;59025;-66
2023/09/29 08:10:23;;;;;;;10.80;7.60;;;;;;;30.50;34.08;101099.30;109041;1254;73893;-64
2023/09/29 08:12:52;;;;;;;11.10;8.00;;;;;;;30.52;34.82;101096.79;109041;1254;65700;-64
2023/09/29 08:15:21;;;;;;;14.90;8.40;;;;;;;30.74;34.96;101094.46;109025;1254;73740;-63
2023/09/29 08:17:49;;;;;;;10.70;8.20;;;;;;;31.01;33.93;101096.33;108728;1254;298288;-64
2023/09/29 08:20:18;;;;;;;11.30;7.10;;;;;;;31.12;33.84;101096.67;109047;1254;61952;-67
2023/09/29 08:22:46;;;;;;;10.70;7.50;;;;;;;31.24;32.54;101090.94;109034;1254;73850;-63
2023/09/29 08:25:16;;;;;;;13.00;7.00;;;;;;;31.15;32.24;101094.52;109039;1254;65883;-64
2023/09/29 08:27:44;;;;;;;9.90;6.50;;;;;;;31.02;32.35;101089.63;109012;1254;72715;-64
2023/09/29 08:30:12;;;;;;;8.80;6.70;;;;;;;30.93;31.92;101087.70;109015;1254;58979;-65
2023/09/29 08:32:42;;;;;;;11.30;7.40;;;;;;;30.90;32.12;101087.43;109034;1254;61033;-66
2023/09/29 08:35:13;;;;;;;9.90;8.00;;;;;;;30.83;32.09;101083.37;108995;1254;73507;-64
2023/09/29 08:37:42;;;;;;;8.90;6.90;;;;;;;30.70;32.50;101078.06;109072;1254;68731;-64
2023/09/29 08:40:10;;;;;;;9.20;7.10;;;;;;;30.64;32.68;101077.95;109041;1254;71336;-66
2023/09/29 08:42:38;;;;;;;11.70;7.30;;;;;;;30.67;32.61;101078.48;108857;1254;58937;-64
2023/09/29 08:45:09;;;;;;;10.40;7.70;;;;;;;30.75;32.98;101081.05;109013;1254;59115;-67
2023/09/29 08:47:38;;;;;;;10.50;8.30;;;;;;;30.84;32.69;101075.02;108878;1254;72685;-64
2023/09/29 08:50:07;;;;;;;13.40;8.70;;;;;;;30.90;32.66;101074.05;108985;1256;65004;-67
2023/09/29 08:52:35;;;;;;;10.80;8.20;;;;;;;30.96;32.18;101075.70;109073;1254;72772;-65
2023/09/29 08:55:03;;;;;;;10.40;8.70;;;;;;;30.93;31.98;101072.30;109037;1254;58851;-67
2023/09/29 08:57:31;;;;;;;10.80;8.00;;;;;;;30.86;32.06;101071.21;109071;1254;59258;-65
2023/09/29 08:59:58;;;;;;;17.40;9.40;;;;;;;30.84;32.01;101072.80;109047;1254;72655;-66
2023/09/29 09:02:26;;;;;;;11.00;8.70;;;;;;;30.79;31.63;101069.39;108892;1254;65872;-64
2023/09/29 09:04:54;;;;;;;14.40;9.10;;;;;;;30.68;32.22;101067.02;109083;1254;72038;-64
2023/09/29 09:07:21;;;;;;;12.00;8.60;;;;;;;30.59;32.65;101063.23;109003;1254;61785;-66
2023/09/29 09:09:50;;;;;;;12.90;9.50;;;;;;;30.69;32.91;101063.86;109005;1259;58794;-66
2023/09/29 09:12:18;;;;;;;9.80;7.40;;;;;;;30.86;32.47;101058.92;109059;1254;73141;-65
2023/09/29 09:14:46;;;;;;;11.90;8.20;;;;;;;30.96;31.67;101060.67;109095;1254;70740;-65
2023/09/29 09:17:14;;;;;;;13.20;7.60;;;;;;;31.00;31.18;101061.45;109065;1254;73217;-64
2023/09/29 09:19:47;;;;;;;12.20;8.10;;;;;;;30.96;31.01;101061.38;108987;1254;58931;-65
2023/09/29 09:22:15;;;;;;;9.50;7.80;;;;;;;30.87;31.58;101062.03;108926;1257;58813;-64
2023/09/29 09:24:47;;;;;;;11.70;7.70;;;;;;;30.85;30.81;101058.84;108943;1256;76137;-64
2023/09/29 09:27:15;;;;;;;8.70;7.30;;;;;;;30.68;31.44;101053.55;108884;1256;66238;-65
2023/09/29 09:29:45;;;;;;;10.60;7.70;;;;;;;30.71;31.45;101051.44;108874;1256;72755;-67
2023/09/29 09:32:14;;;;;;;12.20;6.60;;;;;;;30.66;30.56;101050.46;109069;1256;58816;-65
2023/09/29 09:34:42;;;;;;;7.70;6.50;;;;;;;30.50;30.57;101047.48;108966;1257;61171;-66
2023/09/29 09:37:11;;;;;;;9.00;6.40;;;;;;;30.43;30.94;101044.21;108966;1256;72473;-65
2023/09/29 09:39:39;;;;;;;10.00;6.80;;;;;;;30.37;31.23;101043.42;108926;1255;65704;-65
2023/09/29 09:42:07;;;;;;;8.70;5.60;;;;;;;30.37;31.07;101040.03;108873;1256;72096;-64
2023/09/29 09:44:38;;;;;;;5.30;4.20;;;;;;;30.30;29.95;101038.05;108886;1255;58863;-65
2023/09/29 09:47:10;;;;;;;8.40;5.40;;;;;;;30.25;29.87;101039.37;108948;1255;60087;-63
2023/09/29 09:49:50;;;;;;;10.70;6.30;;;;;;;30.13;30.13;101037.16;108875;1256;74342;-65
2023/09/29 09:53:02;;;;;;;7.10;5.40;;;;;;;30.00;30.41;101026.82;108941;1255;66889;-63
2023/09/29 09:55:38;;;;;;;6.00;5.00;;;;;;;29.98;30.18;101028.48;108927;1255;72828;-65
2023/09/29 09:58:16;;;;;;;5.30;4.10;;;;;;;30.05;30.30;101026.19;108941;1256;60092;-65
2023/09/29 10:00:50;;;;;;;5.20;4.30;;;;;;;30.11;29.68;101027.98;108859;1255;62056;-67
2023/09/29 10:03:18;;;;;;;5.20;4.50;;;;;;;30.15;30.07;101019.32;108981;1256;74359;-65
2023/09/29 10:05:55;;;;;;;7.60;4.90;;;;;;;30.22;30.26;101015.06;108929;1255;59631;-65
2023/09/29 10:08:30;;;;;;;5.70;4.50;;;;;;;30.32;30.23;101013.70;108987;1256;72716;-66
2023/09/29 10:11:10;;;;;;;6.30;3.90;;;;;;;30.35;29.37;101008.42;109084;1254;58541;-63
2023/09/29 10:13:47;;;;;;;6.40;4.70;;;;;;;30.33;29.12;101005.71;109030;1254;58971;-69
2023/09/29 10:16:24;;;;;;;7.70;6.60;;;;;;;30.18;29.91;101008.69;108910;1254;76096;-67
2023/09/29 10:18:58;;;;;;;7.30;5.30;;;;;;;30.12;29.87;101011.83;109089;1254;69174;-64
2023/09/29 10:21:30;;;;;;;10.30;5.60;;;;;;;30.04;30.34;101009.85;109064;1254;71494;-68
2023/09/29 10:24:00;;;;;;;6.90;4.40;;;;;;;30.15;30.38;101007.05;109025;1256;60150;-66
2023/09/29 10:26:28;;;;;;;6.80;4.90;;;;;;;30.26;29.89;101007.83;109059;1254;62073;-65
2023/09/29 10:29:00;;;;;;;7.90;4.80;;;;;;;30.24;29.88;101003.89;109100;1254;65062;-66
2023/09/29 10:31:29;;;;;;;6.90;4.40;;;;;;;30.23;30.09;101003.59;108972;1254;68919;-62
2023/09/29 10:33:58;;;;;;;6.40;5.30;;;;;;;30.22;29.77;101002.96;109019;1254;73611;-64
2023/09/29 10:36:29;;;;;;;6.10;5.00;;;;;;;30.25;29.93;101000.65;109072;1254;58753;-63
2023/09/29 10:38:58;;;;;;;7.40;5.80;;;;;;;30.19;29.59;101003.39;109064;1256;62902;-65
2023/09/29 10:41:28;;;;;;;8.30;5.80;;;;;;;30.08;29.80;100998.23;109019;1254;72869;-65
2023/09/29 10:44:06;;;;;;;7.30;5.30;;;;;;;30.07;30.18;100993.52;109188;1254;66445;-65
2023/09/29 10:46:34;;;;;;;9.10;5.80;;;;;;;30.20;30.80;100986.32;109076;1254;74213;-62
2023/09/29 10:49:02;;;;;;;8.10;5.20;;;;;;;30.48;31.03;100988.65;109033;1254;59272;-65
2023/09/29 10:51:33;;;;;;;7.10;5.30;;;;;;;30.64;29.50;100990.05;109119;1254;62153;-68
2023/09/29 10:54:02;;;;;;;8.00;5.50;;;;;;;30.62;29.39;100986.76;108987;1254;76236;-64
2023/09/29 10:56:30;;;;;;;8.90;5.90;;;;;;;30.61;29.64;100984.41;109089;1254;67034;-65
2023/09/29 10:58:59;;;;;;;6.50;5.40;;;;;;;30.60;30.16;100980.67;109029;1254;73994;-64
2023/09/29 11:01:37;;;;;;;6.80;5.30;;;;;;;30.64;29.71;100975.80;109037;1257;60246;-65
2023/09/29 11:04:09;;;;;;;5.90;4.70;;;;;;;30.62;29.49;100978.14;108990;1254;58792;-65
2023/09/29 11:06:46;;;;;;;5.30;4.80;;;;;;;30.49;29.89;100975.05;108942;1254;75767;-65
2023/09/29 11:09:16;;;;;;;8.00;4.70;;;;;;;30.40;29.64;100978.04;109037;1254;65591;-66
2023/09/29 11:11:45;;;;;;;7.50;4.70;;;;;;;30.21;30.20;100970.83;109087;1254;75080;-64
2023/09/29 11:14:12;;;;;;;5.40;4.50;;;;;;;30.19;30.60;100970.11;109051;1254;59022;-64
2023/09/29 11:16:40;;;;;;;7.70;4.10;;;;;;;30.25;30.33;100968.98;109174;1254;62168;-67